createdAt,value
2019-03-21T00:02:25.873Z,13.79
2019-03-21T00:07:30.613Z,13.85
2019-03-21T00:12:35.257Z,14.09
2019-03-21T00:17:43.071Z,14.04
2019-03-21T00:22:47.634Z,13.95
2019-03-21T00:27:53.891Z,14.02
2019-03-21T00:32:58.635Z,14.20
2019-03-21T00:38:06.140Z,14.19
2019-03-21T00:43:14.168Z,13.90
2019-03-21T00:48:20.953Z,14.04
2019-03-21T00:53:25.694Z,13.65
2019-03-21T00:58:30.274Z,13.93
2019-03-21T01:03:34.869Z,13.04
2019-03-21T01:08:40.129Z,13.43
2019-03-21T01:13:45.386Z,13.64
2019-03-21T01:18:50.638Z,13.47
2019-03-21T01:23:55.269Z,13.67
2019-03-21T01:29:01.674Z,13.58
2019-03-21T01:34:06.403Z,13.64
2019-03-21T01:39:11.041Z,13.89
2019-03-21T01:44:15.789Z,13.67
2019-03-21T01:49:22.605Z,12.80
2019-03-21T01:54:28.742Z,13.19
2019-03-21T01:59:33.401Z,13.60
2019-03-21T02:04:38.145Z,13.65
2019-03-21T02:09:43.909Z,13.77
2019-03-21T02:14:52.400Z,13.77
2019-03-21T02:19:57.284Z,13.71
2019-03-21T02:25:02.340Z,13.88
2019-03-21T02:30:19.002Z,13.82
2019-03-21T02:35:23.702Z,13.84
2019-03-21T02:40:28.444Z,13.11
2019-03-21T02:45:33.189Z,13.45
2019-03-21T02:50:43.622Z,13.39
2019-03-21T02:55:48.929Z,13.06
2019-03-21T03:00:53.679Z,11.91
2019-03-21T03:05:58.409Z,12.20
2019-03-21T03:11:06.122Z,12.05
2019-03-21T03:16:10.772Z,12.74
2019-03-21T03:21:16.837Z,12.37
2019-03-21T03:26:21.584Z,13.02
2019-03-21T03:31:26.332Z,13.29
2019-03-21T03:36:31.172Z,13.39
2019-03-21T03:41:35.909Z,13.38
2019-03-21T03:46:41.270Z,12.84
2019-03-21T03:51:46.633Z,13.18
2019-03-21T03:56:52.909Z,13.08
2019-03-21T04:01:57.650Z,12.80
2019-03-21T04:07:02.293Z,12.93
2019-03-21T04:12:07.850Z,12.65
2019-03-21T04:17:12.596Z,12.79
2019-03-21T04:22:17.362Z,13.14
2019-03-21T04:27:21.977Z,12.53
2019-03-21T04:32:26.824Z,12.37
2019-03-21T04:37:32.093Z,10.85
2019-03-21T04:42:36.721Z,11.68
2019-03-21T04:47:41.370Z,12.00
2019-03-21T04:52:46.106Z,12.56
2019-03-21T04:57:50.738Z,12.46
2019-03-21T05:03:02.331Z,12.47
2019-03-21T05:08:07.095Z,12.71
2019-03-21T05:13:15.013Z,12.55
2019-03-21T05:18:28.699Z,12.88
2019-03-21T05:23:34.950Z,12.72
2019-03-21T05:28:40.301Z,12.80
2019-03-21T05:33:45.045Z,12.31
2019-03-21T05:38:52.035Z,12.91
2019-03-21T05:44:03.847Z,13.06
2019-03-21T05:49:10.738Z,13.13
2019-03-21T05:54:15.657Z,12.91
2019-03-21T05:59:21.045Z,12.62
2019-03-21T06:04:26.012Z,13.00
2019-03-21T06:09:31.768Z,12.98
2019-03-21T06:14:41.322Z,12.68
2019-03-21T06:20:24.565Z,13.03
2019-03-21T06:25:47.432Z,12.57
2019-03-21T06:30:52.274Z,12.97
2019-03-21T06:35:57.635Z,12.72
2019-03-21T06:41:02.485Z,13.12
2019-03-21T06:46:07.224Z,13.15
2019-03-21T06:51:12.481Z,13.02
2019-03-21T06:56:18.260Z,12.99
2019-03-21T07:01:23.199Z,13.15
2019-03-21T07:06:28.966Z,12.92
2019-03-21T07:11:36.372Z,13.18
2019-03-21T07:16:41.521Z,13.08
2019-03-21T07:21:48.605Z,13.16
2019-03-21T07:26:53.462Z,12.42
2019-03-21T07:31:59.435Z,12.89
2019-03-21T07:37:04.398Z,12.73
2019-03-21T07:42:09.647Z,12.83
2019-03-21T07:47:14.381Z,13.08
2019-03-21T07:52:20.000Z,12.78
2019-03-21T07:57:25.112Z,13.06
2019-03-21T08:02:30.453Z,12.71
2019-03-21T08:07:35.196Z,12.97
2019-03-21T08:12:40.356Z,13.12
2019-03-21T08:17:45.013Z,13.22
2019-03-21T08:22:49.735Z,13.33
2019-03-21T08:27:54.294Z,12.99
2019-03-21T08:32:59.013Z,12.99
2019-03-21T08:38:03.654Z,12.96
2019-03-21T08:43:08.403Z,13.19
2019-03-21T08:48:12.987Z,13.26
2019-03-21T08:53:17.677Z,12.72
2019-03-21T08:58:22.259Z,13.22
2019-03-21T09:03:26.963Z,13.08
2019-03-21T09:08:31.723Z,13.23
2019-03-21T09:13:38.003Z,13.20
2019-03-21T09:18:42.835Z,13.63
2019-03-21T09:23:47.474Z,13.55
2019-03-21T09:28:52.214Z,12.48
2019-03-21T09:33:56.956Z,13.83
2019-03-21T09:39:01.703Z,13.63
2019-03-21T09:44:06.958Z,13.64
2019-03-21T09:49:11.703Z,13.20
2019-03-21T09:54:18.388Z,12.62
2019-03-21T09:59:24.875Z,12.53
2019-03-21T10:04:29.527Z,13.05
2019-03-21T10:09:34.262Z,11.80
2019-03-21T10:14:39.038Z,13.26
2019-03-21T10:19:43.866Z,13.69
2019-03-21T10:24:48.503Z,14.18
2019-03-21T10:29:53.230Z,13.99
2019-03-21T10:34:57.811Z,13.08
2019-03-21T10:40:02.513Z,14.23
2019-03-21T10:45:07.355Z,14.71
2019-03-21T10:50:15.376Z,14.99
2019-03-21T10:55:20.224Z,14.05
2019-03-21T11:00:25.170Z,15.13
2019-03-21T11:05:30.032Z,15.42
2019-03-21T11:10:34.755Z,14.71
2019-03-21T11:15:39.502Z,15.44
2019-03-21T11:20:44.245Z,14.81
2019-03-21T11:25:49.092Z,14.00
2019-03-21T11:30:53.836Z,14.17
2019-03-21T11:35:58.577Z,15.14
2019-03-21T11:41:03.202Z,15.75
2019-03-21T11:46:07.975Z,16.08
2019-03-21T11:51:12.608Z,15.48
2019-03-21T11:56:19.276Z,14.92
2019-03-21T12:01:23.629Z,15.90
2019-03-21T12:06:28.371Z,15.49
2019-03-21T12:11:33.112Z,15.95
2019-03-21T12:16:39.106Z,14.85
2019-03-21T12:21:43.630Z,16.05
2019-03-21T12:26:48.365Z,16.11
2019-03-21T12:31:53.173Z,16.65
2019-03-21T12:36:57.959Z,16.33
2019-03-21T12:42:02.705Z,15.66
2019-03-21T12:47:07.544Z,16.17
2019-03-21T12:52:12.192Z,16.33
2019-03-21T12:57:18.063Z,16.37
2019-03-21T13:02:32.066Z,15.96
2019-03-21T13:12:51.232Z,15.56
2019-03-21T13:17:55.973Z,15.68
2019-03-21T13:23:00.716Z,15.54
2019-03-21T13:28:05.460Z,14.57
2019-03-21T13:33:10.204Z,15.01
2019-03-21T13:38:14.901Z,15.19
2019-03-21T13:43:19.591Z,14.97
2019-03-21T13:48:24.329Z,15.32
2019-03-21T13:53:29.075Z,14.34
2019-03-21T13:58:33.839Z,13.85
2019-03-21T14:03:38.561Z,13.65
2019-03-21T14:08:43.306Z,13.65
2019-03-21T14:13:48.051Z,13.61
2019-03-21T14:18:52.790Z,13.49
2019-03-21T14:23:57.644Z,13.75
2019-03-21T14:29:12.263Z,14.01
2019-03-21T14:34:08.666Z,13.95
2019-03-21T14:39:14.535Z,14.26
2019-03-21T14:44:19.283Z,13.95
2019-03-21T14:49:24.057Z,13.55
2019-03-21T14:54:28.963Z,13.18
2019-03-21T14:59:33.768Z,13.41
2019-03-21T15:04:41.625Z,12.94
2019-03-21T15:09:46.368Z,13.07
2019-03-21T15:14:51.113Z,13.04
2019-03-21T15:19:55.858Z,13.25
2019-03-21T15:25:00.725Z,13.28
2019-03-21T15:30:08.505Z,13.05
2019-03-21T15:35:14.131Z,12.81
2019-03-21T15:40:19.195Z,12.57
2019-03-21T15:45:25.107Z,13.10
2019-03-21T15:50:37.713Z,13.21
2019-03-21T15:55:41.522Z,13.10
2019-03-21T16:00:46.412Z,13.27
2019-03-21T16:05:53.292Z,13.20
2019-03-21T16:10:58.330Z,13.64
2019-03-21T16:16:03.295Z,14.12
2019-03-21T16:21:08.060Z,13.61
2019-03-21T16:26:14.420Z,14.12
2019-03-21T16:31:19.465Z,14.44
2019-03-21T16:36:24.459Z,14.26
2019-03-21T16:41:30.288Z,13.47
2019-03-21T16:46:35.130Z,14.00
2019-03-21T16:51:41.510Z,13.72
2019-03-21T16:56:46.351Z,14.20
2019-03-21T17:01:52.741Z,13.97
2019-03-21T17:06:57.465Z,13.50
2019-03-21T17:12:02.231Z,13.59
2019-03-21T17:17:06.837Z,12.90
2019-03-21T17:22:12.430Z,13.48
2019-03-21T17:27:18.296Z,13.37
2019-03-21T17:32:23.035Z,13.56
2019-03-21T17:37:27.991Z,13.48
2019-03-21T17:42:32.963Z,13.68
2019-03-21T17:47:37.903Z,13.83
2019-03-21T17:52:42.523Z,13.65
2019-03-21T17:57:47.982Z,13.46
2019-03-21T18:02:53.167Z,13.53
2019-03-21T18:07:57.880Z,12.78
2019-03-21T18:13:02.932Z,13.64
2019-03-21T18:18:07.879Z,13.39
2019-03-21T18:23:14.852Z,13.32
2019-03-21T18:28:19.791Z,13.65
2019-03-21T18:33:24.463Z,13.59
2019-03-21T18:38:29.206Z,13.42
2019-03-21T18:43:33.946Z,13.81
2019-03-21T18:48:40.228Z,13.68
2019-03-21T18:53:44.971Z,13.38
2019-03-21T18:58:50.020Z,12.96
2019-03-21T19:03:55.553Z,12.83
2019-03-21T19:09:00.249Z,12.87
2019-03-21T19:14:05.734Z,12.69
2019-03-21T19:19:10.752Z,12.66
2019-03-21T19:24:16.466Z,12.17
2019-03-21T19:29:21.361Z,12.04
2019-03-21T19:34:27.172Z,12.18
2019-03-21T19:39:33.147Z,12.15
2019-03-21T19:44:37.975Z,12.06
2019-03-21T19:49:42.756Z,11.00
2019-03-21T19:54:49.787Z,11.79
2019-03-21T19:59:54.726Z,11.78
2019-03-21T20:04:59.789Z,11.86
2019-03-21T20:10:06.590Z,11.76
2019-03-21T20:15:13.296Z,11.30
2019-03-21T20:20:18.745Z,11.61
2019-03-21T20:25:23.885Z,11.55
2019-03-21T20:30:28.613Z,11.59
2019-03-21T20:35:33.249Z,11.55
2019-03-21T20:40:39.209Z,11.66
2019-03-21T20:45:44.069Z,11.77
2019-03-21T20:50:48.810Z,11.86
2019-03-21T20:55:54.055Z,11.47
2019-03-21T21:00:58.905Z,11.18
2019-03-21T21:06:03.554Z,11.24
2019-03-21T21:11:08.395Z,11.47
2019-03-21T21:16:13.135Z,11.37
2019-03-21T21:21:17.776Z,11.40
2019-03-21T21:26:22.557Z,11.22
2019-03-21T21:31:27.263Z,11.33
2019-03-21T21:36:32.006Z,10.74
2019-03-21T21:41:36.655Z,10.94
2019-03-21T21:46:41.392Z,10.88
2019-03-21T21:51:46.244Z,10.82
2019-03-21T21:56:52.118Z,10.94
2019-03-21T22:01:56.745Z,10.94
2019-03-21T22:07:01.384Z,10.23
2019-03-21T22:12:06.027Z,10.57
2019-03-21T22:17:10.667Z,9.95
2019-03-21T22:22:15.299Z,9.32
2019-03-21T22:27:21.073Z,9.94
2019-03-21T22:32:25.814Z,9.59
2019-03-21T22:37:30.456Z,9.40
2019-03-21T22:42:35.096Z,9.34
2019-03-21T22:47:39.879Z,9.83
2019-03-21T22:52:45.115Z,9.86
2019-03-21T22:57:49.940Z,9.19
2019-03-21T23:02:54.527Z,9.57
2019-03-21T23:07:59.112Z,9.54
2019-03-21T23:13:03.647Z,9.54
2019-03-21T23:18:08.301Z,9.53
2019-03-21T23:23:12.861Z,9.70
2019-03-21T23:28:17.576Z,9.28
2019-03-21T23:33:22.374Z,8.86
2019-03-21T23:38:26.966Z,8.48
2019-03-21T23:43:31.704Z,8.86
2019-03-21T23:48:36.452Z,8.82
2019-03-21T23:53:41.187Z,8.63
2019-03-21T23:58:45.935Z,8.68
